sensor_id;sensor_type;location;lat;lon;timestamp;pressure;altitude;pressure_sealevel;temperature;humidity
71966;BME280;59836;52.132;5.442;2022-07-29T00:02:23;101855.69;;;16.60;63.62
71966;BME280;59836;52.132;5.442;2022-07-29T00:04:50;101860.34;;;16.59;63.73
71966;BME280;59836;52.132;5.442;2022-07-29T00:07:16;101851.59;;;16.57;64.20
71966;BME280;59836;52.132;5.442;2022-07-29T00:09:43;101845.28;;;16.57;63.89
71966;BME280;59836;52.132;5.442;2022-07-29T00:12:21;101842.03;;;16.55;64.31
71966;BME280;59836;52.132;5.442;2022-07-29T00:14:53;101843.44;;;16.52;64.53
71966;BME280;59836;52.132;5.442;2022-07-29T00:17:20;101840.97;;;16.50;63.89
71966;BME280;59836;52.132;5.442;2022-07-29T00:19:46;101836.59;;;16.49;64.21
71966;BME280;59836;52.132;5.442;2022-07-29T00:22:13;101845.91;;;16.48;64.13
71966;BME280;59836;52.132;5.442;2022-07-29T00:24:39;101838.00;;;16.47;64.09
71966;BME280;59836;52.132;5.442;2022-07-29T00:27:05;101836.63;;;16.44;64.52
71966;BME280;59836;52.132;5.442;2022-07-29T00:29:32;101829.50;;;16.43;64.70
71966;BME280;59836;52.132;5.442;2022-07-29T00:32:00;101820.19;;;16.44;64.62
71966;BME280;59836;52.132;5.442;2022-07-29T00:34:27;101824.03;;;16.43;64.76
71966;BME280;59836;52.132;5.442;2022-07-29T00:37:12;101815.88;;;16.38;64.94
71966;BME280;59836;52.132;5.442;2022-07-29T00:39:38;101817.25;;;16.35;65.06
71966;BME280;59836;52.132;5.442;2022-07-29T00:42:05;101814.28;;;16.32;65.08
71966;BME280;59836;52.132;5.442;2022-07-29T00:44:38;101819.22;;;16.30;64.71
71966;BME280;59836;52.132;5.442;2022-07-29T00:47:05;101815.13;;;16.27;65.16
71966;BME280;59836;52.132;5.442;2022-07-29T00:49:32;101805.00;;;16.28;65.37
71966;BME280;59836;52.132;5.442;2022-07-29T00:52:03;101808.84;;;16.27;65.94
71966;BME280;59836;52.132;5.442;2022-07-29T00:54:31;101802.00;;;16.24;65.49
71966;BME280;59836;52.132;5.442;2022-07-29T00:56:58;101797.41;;;16.19;65.42
71966;BME280;59836;52.132;5.442;2022-07-29T00:59:28;101804.50;;;16.20;66.05
71966;BME280;59836;52.132;5.442;2022-07-29T01:02:01;101799.59;;;16.17;66.04
71966;BME280;59836;52.132;5.442;2022-07-29T01:04:27;101799.59;;;16.17;65.93
71966;BME280;59836;52.132;5.442;2022-07-29T01:06:55;101791.44;;;16.12;66.17
71966;BME280;59836;52.132;5.442;2022-07-29T01:09:23;101794.72;;;16.09;66.57
71966;BME280;59836;52.132;5.442;2022-07-29T01:12:10;101793.63;;;16.10;65.85
71966;BME280;59836;52.132;5.442;2022-07-29T01:14:37;101792.78;;;16.09;66.08
71966;BME280;59836;52.132;5.442;2022-07-29T01:25:54;101790.97;;;16.00;66.23
71966;BME280;59836;52.132;5.442;2022-07-29T01:31:11;101786.63;;;15.93;66.73
71966;BME280;59836;52.132;5.442;2022-07-29T01:34:05;101783.88;;;15.93;66.63
71966;BME280;59836;52.132;5.442;2022-07-29T01:36:50;101786.06;;;15.91;66.43
71966;BME280;59836;52.132;5.442;2022-07-29T01:39:27;101784.44;;;15.90;66.71
71966;BME280;59836;52.132;5.442;2022-07-29T01:42:01;101786.63;;;15.88;66.50
71966;BME280;59836;52.132;5.442;2022-07-29T01:44:33;101791.53;;;15.86;66.56
71966;BME280;59836;52.132;5.442;2022-07-29T01:47:04;101787.75;;;15.87;66.97
71966;BME280;59836;52.132;5.442;2022-07-29T01:49:35;101786.63;;;15.88;66.84
71966;BME280;59836;52.132;5.442;2022-07-29T01:52:10;101784.72;;;15.84;67.29
71966;BME280;59836;52.132;5.442;2022-07-29T01:54:40;101794.84;;;15.83;66.92
71966;BME280;59836;52.132;5.442;2022-07-29T01:57:14;101796.50;;;15.79;67.56
71966;BME280;59836;52.132;5.442;2022-07-29T01:59:45;101792.97;;;15.78;67.69
71966;BME280;59836;52.132;5.442;2022-07-29T02:02:15;101783.41;;;15.76;68.07
71966;BME280;59836;52.132;5.442;2022-07-29T02:04:44;101797.06;;;15.76;67.41
71966;BME280;59836;52.132;5.442;2022-07-29T02:07:19;101788.88;;;15.76;67.31
71966;BME280;59836;52.132;5.442;2022-07-29T02:09:47;101792.69;;;15.75;67.59
71966;BME280;59836;52.132;5.442;2022-07-29T02:12:17;101795.44;;;15.75;67.49
71966;BME280;59836;52.132;5.442;2022-07-29T02:14:50;101788.88;;;15.76;68.01
71966;BME280;59836;52.132;5.442;2022-07-29T02:17:27;101799.00;;;15.75;67.29
71966;BME280;59836;52.132;5.442;2022-07-29T02:19:57;101782.59;;;15.75;67.36
71966;BME280;59836;52.132;5.442;2022-07-29T02:22:26;101783.41;;;15.76;67.52
71966;BME280;59836;52.132;5.442;2022-07-29T02:24:55;101785.03;;;15.77;67.78
71966;BME280;59836;52.132;5.442;2022-07-29T02:27:23;101783.41;;;15.76;67.44
71966;BME280;59836;52.132;5.442;2022-07-29T02:29:51;101773.84;;;15.73;67.74
71966;BME280;59836;52.132;5.442;2022-07-29T02:32:19;101776.28;;;15.75;67.91
71966;BME280;59836;52.132;5.442;2022-07-29T02:34:48;101769.75;;;15.71;67.14
71966;BME280;59836;52.132;5.442;2022-07-29T02:37:16;101781.25;;;15.68;67.38
71966;BME280;59836;52.132;5.442;2022-07-29T02:39:45;101774.97;;;15.67;67.43
71966;BME280;59836;52.132;5.442;2022-07-29T02:42:15;101774.13;;;15.67;68.08
71966;BME280;59836;52.132;5.442;2022-07-29T02:44:42;101779.06;;;15.64;67.68
71966;BME280;59836;52.132;5.442;2022-07-29T02:49:44;101763.75;;;15.63;68.10
71966;BME280;59836;52.132;5.442;2022-07-29T02:52:32;101771.97;;;15.63;68.16
71966;BME280;59836;52.132;5.442;2022-07-29T02:55:12;101773.91;;;15.63;68.07
71966;BME280;59836;52.132;5.442;2022-07-29T02:57:46;101779.38;;;15.63;68.05
71966;BME280;59836;52.132;5.442;2022-07-29T03:00:22;101782.38;;;15.61;69.23
71966;BME280;59836;52.132;5.442;2022-07-29T03:02:52;101773.63;;;15.59;68.47
71966;BME280;59836;52.132;5.442;2022-07-29T03:05:20;101782.94;;;15.58;68.08
71966;BME280;59836;52.132;5.442;2022-07-29T03:07:58;101776.91;;;15.56;68.41
71966;BME280;59836;52.132;5.442;2022-07-29T03:10:27;101779.66;;;15.56;68.06
71966;BME280;59836;52.132;5.442;2022-07-29T03:12:55;101778.03;;;15.55;68.33
71966;BME280;59836;52.132;5.442;2022-07-29T03:15:22;101767.63;;;15.52;68.60
71966;BME280;59836;52.132;5.442;2022-07-29T03:17:50;101773.66;;;15.54;68.47
71966;BME280;59836;52.132;5.442;2022-07-29T03:20:18;101759.97;;;15.54;68.54
71966;BME280;59836;52.132;5.442;2022-07-29T03:22:45;101770.13;;;15.54;67.84
71966;BME280;59836;52.132;5.442;2022-07-29T03:25:16;101760.53;;;15.51;67.94
71966;BME280;59836;52.132;5.442;2022-07-29T03:27:43;101763.81;;;15.53;68.52
71966;BME280;59836;52.132;5.442;2022-07-29T03:30:11;101764.38;;;15.50;68.24
71966;BME280;59836;52.132;5.442;2022-07-29T03:32:43;101762.19;;;15.47;68.65
71966;BME280;59836;52.132;5.442;2022-07-29T03:35:10;101752.34;;;15.46;67.78
71966;BME280;59836;52.132;5.442;2022-07-29T03:37:36;101757.03;;;15.45;68.13
71966;BME280;59836;52.132;5.442;2022-07-29T03:40:07;101753.19;;;15.46;67.92
71966;BME280;59836;52.132;5.442;2022-07-29T03:42:38;101752.34;;;15.46;68.34
71966;BME280;59836;52.132;5.442;2022-07-29T03:45:09;101747.72;;;15.46;68.15
71966;BME280;59836;52.132;5.442;2022-07-29T03:47:39;101741.44;;;15.46;68.41
71966;BME280;59836;52.132;5.442;2022-07-29T03:50:17;101735.97;;;15.46;67.85
71966;BME280;59836;52.132;5.442;2022-07-29T03:52:46;101730.22;;;15.47;67.83
71966;BME280;59836;52.132;5.442;2022-07-29T03:55:13;101735.41;;;15.49;67.74
71966;BME280;59836;52.132;5.442;2022-07-29T03:57:41;101731.84;;;15.48;67.59
71966;BME280;59836;52.132;5.442;2022-07-29T04:00:08;101744.16;;;15.46;67.37
71966;BME280;59836;52.132;5.442;2022-07-29T04:02:36;101729.16;;;15.43;67.84
71966;BME280;59836;52.132;5.442;2022-07-29T04:05:03;101741.16;;;15.47;67.60
71966;BME280;59836;52.132;5.442;2022-07-29T04:07:29;101738.44;;;15.47;67.58
71966;BME280;59836;52.132;5.442;2022-07-29T04:09:55;101740.59;;;15.50;67.34
71966;BME280;59836;52.132;5.442;2022-07-29T04:12:22;101749.06;;;15.49;67.50
71966;BME280;59836;52.132;5.442;2022-07-29T04:14:49;101731.06;;;15.43;67.42
71966;BME280;59836;52.132;5.442;2022-07-29T04:17:16;101738.72;;;15.41;68.17
71966;BME280;59836;52.132;5.442;2022-07-29T04:19:43;101736.53;;;15.43;68.14
71966;BME280;59836;52.132;5.442;2022-07-29T04:22:09;101739.53;;;15.46;67.86
71966;BME280;59836;52.132;5.442;2022-07-29T04:24:35;101734.31;;;15.45;67.94
71966;BME280;59836;52.132;5.442;2022-07-29T04:27:02;101728.84;;;15.45;67.91
71966;BME280;59836;52.132;5.442;2022-07-29T04:29:28;101735.97;;;15.46;68.42
71966;BME280;59836;52.132;5.442;2022-07-29T04:31:55;101735.97;;;15.46;67.81
71966;BME280;59836;52.132;5.442;2022-07-29T04:34:21;101733.53;;;15.44;68.00
71966;BME280;59836;52.132;5.442;2022-07-29T04:36:53;101727.22;;;15.44;67.74
71966;BME280;59836;52.132;5.442;2022-07-29T04:39:19;101729.94;;;15.44;67.93
71966;BME280;59836;52.132;5.442;2022-07-29T04:41:49;101735.69;;;15.47;67.78
71966;BME280;59836;52.132;5.442;2022-07-29T04:44:18;101736.78;;;15.46;67.84
71966;BME280;59836;52.132;5.442;2022-07-29T04:46:45;101732.97;;;15.47;68.02
71966;BME280;59836;52.132;5.442;2022-07-29T04:49:11;101740.88;;;15.44;67.50
71966;BME280;59836;52.132;5.442;2022-07-29T04:51:38;101747.44;;;15.43;67.93
71966;BME280;59836;52.132;5.442;2022-07-29T04:54:05;101736.81;;;15.41;67.55
71966;BME280;59836;52.132;5.442;2022-07-29T04:56:32;101733.25;;;15.41;68.17
71966;BME280;59836;52.132;5.442;2022-07-29T04:58:58;101733.81;;;15.38;68.33
71966;BME280;59836;52.132;5.442;2022-07-29T05:01:25;101736.84;;;15.36;68.55
71966;BME280;59836;52.132;5.442;2022-07-29T05:03:51;101733.28;;;15.35;68.62
71966;BME280;59836;52.132;5.442;2022-07-29T05:06:25;101733.84;;;15.32;68.54
71966;BME280;59836;52.132;5.442;2022-07-29T05:08:51;101738.75;;;15.35;68.87
71966;BME280;59836;52.132;5.442;2022-07-29T05:11:18;101743.69;;;15.33;68.57
71966;BME280;59836;52.132;5.442;2022-07-29T05:13:47;101743.69;;;15.33;68.62
71966;BME280;59836;52.132;5.442;2022-07-29T05:16:14;101742.06;;;15.32;69.39
71966;BME280;59836;52.132;5.442;2022-07-29T05:18:41;101742.06;;;15.32;68.78
71966;BME280;59836;52.132;5.442;2022-07-29T05:21:08;101736.59;;;15.32;69.44
71966;BME280;59836;52.132;5.442;2022-07-29T05:23:34;101735.50;;;15.33;69.60
71966;BME280;59836;52.132;5.442;2022-07-29T05:26:01;101745.34;;;15.34;69.13
71966;BME280;59836;52.132;5.442;2022-07-29T05:28:27;101754.06;;;15.37;69.46
71966;BME280;59836;52.132;5.442;2022-07-29T05:30:54;101748.59;;;15.37;69.14
71966;BME280;59836;52.132;5.442;2022-07-29T05:33:20;101755.19;;;15.30;68.70
71966;BME280;59836;52.132;5.442;2022-07-29T05:36:03;101762.81;;;15.33;69.12
71966;BME280;59836;52.132;5.442;2022-07-29T05:38:31;101763.38;;;15.35;69.71
71966;BME280;59836;52.132;5.442;2022-07-29T05:40:58;101763.31;;;15.41;69.72
71966;BME280;59836;52.132;5.442;2022-07-29T05:43:28;101760.03;;;15.44;69.55
71966;BME280;59836;52.132;5.442;2022-07-29T05:45:55;101763.59;;;15.44;69.07
71966;BME280;59836;52.132;5.442;2022-07-29T05:48:22;101760.03;;;15.44;68.92
71966;BME280;59836;52.132;5.442;2022-07-29T05:50:48;101767.09;;;15.50;68.45
71966;BME280;59836;52.132;5.442;2022-07-29T05:53:15;101765.97;;;15.56;69.54
71966;BME280;59836;52.132;5.442;2022-07-29T05:55:46;101773.63;;;15.59;69.08
71966;BME280;59836;52.132;5.442;2022-07-29T05:58:12;101766.53;;;15.58;68.76
71966;BME280;59836;52.132;5.442;2022-07-29T06:00:39;101773.06;;;15.62;68.88
71966;BME280;59836;52.132;5.442;2022-07-29T06:03:06;101768.66;;;15.67;69.57
71966;BME280;59836;52.132;5.442;2022-07-29T06:05:32;101772.47;;;15.71;68.78
71966;BME280;59836;52.132;5.442;2022-07-29T06:07:59;101769.44;;;15.77;68.68
71966;BME280;59836;52.132;5.442;2022-07-29T06:10:25;101769.13;;;15.84;68.19
71966;BME280;59836;52.132;5.442;2022-07-29T06:12:53;101764.19;;;15.91;67.81
71966;BME280;59836;52.132;5.442;2022-07-29T06:15:19;101768.25;;;15.94;67.26
71966;BME280;59836;52.132;5.442;2022-07-29T06:17:46;101775.13;;;15.91;67.37
71966;BME280;59836;52.132;5.442;2022-07-29T06:20:27;101777.31;;;15.94;67.60
71966;BME280;59836;52.132;5.442;2022-07-29T06:22:56;101780.03;;;15.94;67.32
71966;BME280;59836;52.132;5.442;2022-07-29T06:25:23;101794.00;;;15.93;67.81
71966;BME280;59836;52.132;5.442;2022-07-29T06:27:49;101795.91;;;15.92;67.60
71966;BME280;59836;52.132;5.442;2022-07-29T06:30:16;101796.47;;;15.89;67.92
71966;BME280;59836;52.132;5.442;2022-07-29T06:32:42;101805.78;;;15.83;69.65
71966;BME280;59836;52.132;5.442;2022-07-29T06:35:09;101806.63;;;15.89;68.67
71966;BME280;59836;52.132;5.442;2022-07-29T06:37:55;101810.69;;;15.91;68.91
71966;BME280;59836;52.132;5.442;2022-07-29T06:40:24;101806.56;;;15.94;68.70
71966;BME280;59836;52.132;5.442;2022-07-29T06:43:09;101806.84;;;15.98;68.08
71966;BME280;59836;52.132;5.442;2022-07-29T06:45:36;101793.16;;;15.98;68.70
71966;BME280;59836;52.132;5.442;2022-07-29T06:48:04;101787.09;;;16.06;68.69
71966;BME280;59836;52.132;5.442;2022-07-29T06:50:31;101795.78;;;16.13;67.56
71966;BME280;59836;52.132;5.442;2022-07-29T06:52:57;101787.78;;;16.22;67.15
71966;BME280;59836;52.132;5.442;2022-07-29T06:55:24;101801.72;;;16.26;67.64
71966;BME280;59836;52.132;5.442;2022-07-29T06:57:50;101802.78;;;16.35;67.88
71966;BME280;59836;52.132;5.442;2022-07-29T07:00:17;101799.34;;;16.48;67.99
71966;BME280;59836;52.132;5.442;2022-07-29T07:02:43;101801.47;;;16.57;66.55
71966;BME280;59836;52.132;5.442;2022-07-29T07:05:12;101799.84;;;16.56;66.86
71966;BME280;59836;52.132;5.442;2022-07-29T07:07:39;101798.13;;;16.65;67.14
71966;BME280;59836;52.132;5.442;2022-07-29T07:10:05;101799.19;;;16.69;66.68
71966;BME280;59836;52.132;5.442;2022-07-29T07:12:32;101801.88;;;16.74;66.41
71966;BME280;59836;52.132;5.442;2022-07-29T07:14:58;101806.69;;;16.88;67.19
71966;BME280;59836;52.132;5.442;2022-07-29T07:17:25;101802.19;;;17.02;66.54
71966;BME280;59836;52.132;5.442;2022-07-29T07:19:51;101799.97;;;17.04;64.73
71966;BME280;59836;52.132;5.442;2022-07-29T07:22:17;101811.16;;;17.08;65.06
71966;BME280;59836;52.132;5.442;2022-07-29T07:24:44;101805.63;;;17.13;65.53
71966;BME280;59836;52.132;5.442;2022-07-29T07:27:10;101803.72;;;17.14;64.99
71966;BME280;59836;52.132;5.442;2022-07-29T07:29:37;101811.31;;;17.22;64.57
71966;BME280;59836;52.132;5.442;2022-07-29T07:32:09;101804.13;;;17.26;64.86
71966;BME280;59836;52.132;5.442;2022-07-29T07:34:35;101799.59;;;17.40;64.50
71966;BME280;59836;52.132;5.442;2022-07-29T07:37:04;101796.69;;;17.51;64.12
71966;BME280;59836;52.132;5.442;2022-07-29T07:39:30;101787.81;;;17.59;63.13
71966;BME280;59836;52.132;5.442;2022-07-29T07:41:57;101784.41;;;17.67;63.07
71966;BME280;59836;52.132;5.442;2022-07-29T07:44:23;101782.66;;;17.77;63.04
71966;BME280;59836;52.132;5.442;2022-07-29T07:46:50;101780.94;;;17.81;64.31
71966;BME280;59836;52.132;5.442;2022-07-29T07:49:16;101778.28;;;17.95;63.64
71966;BME280;59836;52.132;5.442;2022-07-29T07:51:43;101775.13;;;18.07;63.72
71966;BME280;59836;52.132;5.442;2022-07-29T07:54:16;101779.63;;;18.17;63.22
71966;BME280;59836;52.132;5.442;2022-07-29T07:56:43;101783.56;;;18.29;62.54
71966;BME280;59836;52.132;5.442;2022-07-29T07:59:09;101777.66;;;18.36;62.39
71966;BME280;59836;52.132;5.442;2022-07-29T08:01:36;101768.53;;;18.41;62.31
71966;BME280;59836;52.132;5.442;2022-07-29T08:04:21;101772.84;;;18.47;61.76
71966;BME280;59836;52.132;5.442;2022-07-29T08:06:53;101776.63;;;18.51;61.95
71966;BME280;59836;52.132;5.442;2022-07-29T08:09:24;101769.78;;;18.49;62.55
71966;BME280;59836;52.132;5.442;2022-07-29T08:11:57;101764.09;;;18.45;62.26
71966;BME280;59836;52.132;5.442;2022-07-29T08:14:24;101767.72;;;18.40;63.53
71966;BME280;59836;52.132;5.442;2022-07-29T08:16:51;101765.19;;;18.44;63.39
71966;BME280;59836;52.132;5.442;2022-07-29T08:19:17;101760.22;;;18.46;62.48
71966;BME280;59836;52.132;5.442;2022-07-29T08:21:44;101770.38;;;18.46;63.09
71966;BME280;59836;52.132;5.442;2022-07-29T08:24:10;101779.13;;;18.48;62.85
71966;BME280;59836;52.132;5.442;2022-07-29T08:26:55;101768.97;;;18.48;61.89
71966;BME280;59836;52.132;5.442;2022-07-29T08:29:22;101775.50;;;18.52;63.25
71966;BME280;59836;52.132;5.442;2022-07-29T08:31:48;101771.44;;;18.64;61.79
71966;BME280;59836;52.132;5.442;2022-07-29T08:34:15;101771.84;;;18.71;60.74
71966;BME280;59836;52.132;5.442;2022-07-29T08:36:41;101773.38;;;18.77;61.13
71966;BME280;59836;52.132;5.442;2022-07-29T08:39:08;101768.41;;;18.79;62.10
71966;BME280;59836;52.132;5.442;2022-07-29T08:41:35;101765.66;;;18.79;60.58
71966;BME280;59836;52.132;5.442;2022-07-29T08:44:01;101776.75;;;18.74;61.83
71966;BME280;59836;52.132;5.442;2022-07-29T08:46:28;101768.81;;;18.72;61.77
71966;BME280;59836;52.132;5.442;2022-07-29T08:48:55;101784.09;;;18.79;62.88
71966;BME280;59836;52.132;5.442;2022-07-29T08:51:22;101787.34;;;18.81;62.49
71966;BME280;59836;52.132;5.442;2022-07-29T08:53:50;101783.69;;;18.85;62.12
71966;BME280;59836;52.132;5.442;2022-07-29T08:56:18;101790.44;;;18.93;61.17
71966;BME280;59836;52.132;5.442;2022-07-29T08:58:46;101785.56;;;19.04;60.17
71966;BME280;59836;52.132;5.442;2022-07-29T09:01:22;101774.16;;;19.11;60.93
71966;BME280;59836;52.132;5.442;2022-07-29T09:04:04;101786.50;;;19.27;59.62
71966;BME280;59836;52.132;5.442;2022-07-29T09:06:34;101782.84;;;19.32;60.67
71966;BME280;59836;52.132;5.442;2022-07-29T09:09:03;101782.63;;;19.42;59.15
71966;BME280;59836;52.132;5.442;2022-07-29T09:11:32;101775.69;;;19.45;61.04
71966;BME280;59836;52.132;5.442;2022-07-29T09:13:58;101775.06;;;19.48;61.08
71966;BME280;59836;52.132;5.442;2022-07-29T09:16:24;101773.94;;;19.49;60.23
71966;BME280;59836;52.132;5.442;2022-07-29T09:21:55;101773.81;;;19.68;61.69
71966;BME280;59836;52.132;5.442;2022-07-29T09:27:01;101775.91;;;19.99;59.26
71966;BME280;59836;52.132;5.442;2022-07-29T09:29:28;101782.84;;;19.97;57.41
71966;BME280;59836;52.132;5.442;2022-07-29T09:32:05;101782.66;;;19.93;58.48
71966;BME280;59836;52.132;5.442;2022-07-29T09:34:32;101776.50;;;19.96;57.20
71966;BME280;59836;52.132;5.442;2022-07-29T09:36:58;101787.91;;;20.03;57.32
71966;BME280;59836;52.132;5.442;2022-07-29T09:39:40;101784.41;;;20.12;57.27
71966;BME280;59836;52.132;5.442;2022-07-29T09:42:13;101776.53;;;20.19;58.37
71966;BME280;59836;52.132;5.442;2022-07-29T09:44:44;101768.91;;;20.16;56.21
71966;BME280;59836;52.132;5.442;2022-07-29T09:47:10;101777.16;;;20.16;56.85
71966;BME280;59836;52.132;5.442;2022-07-29T09:49:54;101767.78;;;20.17;57.30
71966;BME280;59836;52.132;5.442;2022-07-29T09:52:21;101764.06;;;20.21;55.95
71966;BME280;59836;52.132;5.442;2022-07-29T09:54:47;101767.66;;;20.22;56.21
71966;BME280;59836;52.132;5.442;2022-07-29T09:57:25;101762.16;;;20.22;55.67
71966;BME280;59836;52.132;5.442;2022-07-29T10:00:11;101758.75;;;20.25;56.01
71966;BME280;59836;52.132;5.442;2022-07-29T10:02:40;101764.78;;;20.27;55.82
71966;BME280;59836;52.132;5.442;2022-07-29T10:05:23;101774.16;;;20.26;54.85
71966;BME280;59836;52.132;5.442;2022-07-29T10:07:58;101778.03;;;20.25;55.41
71966;BME280;59836;52.132;5.442;2022-07-29T10:10:30;101770.47;;;20.31;55.99
71966;BME280;59836;52.132;5.442;2022-07-29T10:13:05;101766.91;;;20.30;55.46
71966;BME280;59836;52.132;5.442;2022-07-29T10:15:39;101762.69;;;20.33;55.98
71966;BME280;59836;52.132;5.442;2022-07-29T10:18:12;101766.56;;;20.32;55.84
71966;BME280;59836;52.132;5.442;2022-07-29T10:20:39;101777.78;;;20.35;55.91
71966;BME280;59836;52.132;5.442;2022-07-29T10:23:05;101771.31;;;20.40;56.70
71966;BME280;59836;52.132;5.442;2022-07-29T10:25:32;101769.78;;;20.48;56.58
71966;BME280;59836;52.132;5.442;2022-07-29T10:27:58;101772.41;;;20.53;55.98
71966;BME280;59836;52.132;5.442;2022-07-29T10:30:25;101768.00;;;20.52;56.56
71966;BME280;59836;52.132;5.442;2022-07-29T10:33:15;101771.94;;;20.60;56.80
71966;BME280;59836;52.132;5.442;2022-07-29T10:43:58;101771.97;;;20.91;54.30
71966;BME280;59836;52.132;5.442;2022-07-29T10:46:26;101780.09;;;20.97;55.02
71966;BME280;59836;52.132;5.442;2022-07-29T10:49:26;101769.59;;;21.07;55.80
71966;BME280;59836;52.132;5.442;2022-07-29T10:59:44;101770.50;;;21.43;53.56
71966;BME280;59836;52.132;5.442;2022-07-29T11:05:09;101769.22;;;21.49;55.35
71966;BME280;59836;52.132;5.442;2022-07-29T11:07:39;101773.31;;;21.61;55.07
71966;BME280;59836;52.132;5.442;2022-07-29T11:15:12;101767.31;;;21.76;54.53
71966;BME280;59836;52.132;5.442;2022-07-29T11:23:32;101766.53;;;21.93;54.04
71966;BME280;59836;52.132;5.442;2022-07-29T11:34:26;101762.13;;;22.10;52.50
71966;BME280;59836;52.132;5.442;2022-07-29T11:45:19;101759.50;;;22.31;51.62
71966;BME280;59836;52.132;5.442;2022-07-29T11:48:07;101756.56;;;22.36;51.19
71966;BME280;59836;52.132;5.442;2022-07-29T11:50:53;101756.56;;;22.36;51.05
71966;BME280;59836;52.132;5.442;2022-07-29T11:53:20;101758.34;;;22.41;51.01
71966;BME280;59836;52.132;5.442;2022-07-29T11:55:54;101755.13;;;22.48;50.11
71966;BME280;59836;52.132;5.442;2022-07-29T11:58:23;101760.47;;;22.53;51.73
71966;BME280;59836;52.132;5.442;2022-07-29T12:00:52;101765.34;;;22.56;51.41
71966;BME280;59836;52.132;5.442;2022-07-29T12:03:28;101762.22;;;22.58;51.44
71966;BME280;59836;52.132;5.442;2022-07-29T12:06:11;101765.63;;;22.63;50.78
71966;BME280;59836;52.132;5.442;2022-07-29T12:08:41;101766.59;;;22.67;48.78
71966;BME280;59836;52.132;5.442;2022-07-29T12:11:18;101759.63;;;22.61;49.29
71966;BME280;59836;52.132;5.442;2022-07-29T12:13:48;101761.25;;;22.62;51.38
71966;BME280;59836;52.132;5.442;2022-07-29T12:16:15;101758.13;;;22.73;51.58
71966;BME280;59836;52.132;5.442;2022-07-29T12:19:01;101760.50;;;22.83;49.96
71966;BME280;59836;52.132;5.442;2022-07-29T12:21:49;101755.94;;;22.87;50.20
71966;BME280;59836;52.132;5.442;2022-07-29T12:24:23;101758.03;;;22.90;49.58
71966;BME280;59836;52.132;5.442;2022-07-29T12:26:57;101761.16;;;22.89;49.25
71966;BME280;59836;52.132;5.442;2022-07-29T12:29:24;101763.56;;;22.90;50.08
71966;BME280;59836;52.132;5.442;2022-07-29T12:32:00;101763.56;;;22.90;48.68
71966;BME280;59836;52.132;5.442;2022-07-29T12:34:28;101758.69;;;22.96;49.83
71966;BME280;59836;52.132;5.442;2022-07-29T12:36:55;101762.88;;;23.02;49.89
71966;BME280;59836;52.132;5.442;2022-07-29T12:39:22;101763.00;;;23.06;48.84
71966;BME280;59836;52.132;5.442;2022-07-29T12:41:48;101762.22;;;23.05;49.37
71966;BME280;59836;52.132;5.442;2022-07-29T12:44:14;101757.28;;;23.11;49.57
71966;BME280;59836;52.132;5.442;2022-07-29T12:46:41;101757.44;;;23.14;49.08
71966;BME280;59836;52.132;5.442;2022-07-29T12:49:07;101753.38;;;23.12;49.58
71966;BME280;59836;52.132;5.442;2022-07-29T12:51:38;101752.25;;;23.13;49.96
71966;BME280;59836;52.132;5.442;2022-07-29T12:54:13;101747.47;;;23.22;48.92
71966;BME280;59836;52.132;5.442;2022-07-29T12:56:41;101750.56;;;23.29;48.80
71966;BME280;59836;52.132;5.442;2022-07-29T12:59:18;101749.41;;;23.31;48.70
71966;BME280;59836;52.132;5.442;2022-07-29T13:01:46;101749.06;;;23.32;48.93
71966;BME280;59836;52.132;5.442;2022-07-29T13:04:31;101750.16;;;23.40;48.60
71966;BME280;59836;52.132;5.442;2022-07-29T13:07:10;101750.75;;;23.46;47.80
71966;BME280;59836;52.132;5.442;2022-07-29T13:12:09;101745.38;;;23.49;46.87
71966;BME280;59836;52.132;5.442;2022-07-29T13:17:09;101755.13;;;23.55;48.15
71966;BME280;59836;52.132;5.442;2022-07-29T13:19:43;101747.28;;;23.57;47.67
71966;BME280;59836;52.132;5.442;2022-07-29T13:22:11;101750.53;;;23.59;47.53
71966;BME280;59836;52.132;5.442;2022-07-29T13:24:52;101749.16;;;23.66;47.20
71966;BME280;59836;52.132;5.442;2022-07-29T13:27:27;101752.63;;;23.63;48.18
71966;BME280;59836;52.132;5.442;2022-07-29T13:29:54;101747.81;;;23.72;47.74
71966;BME280;59836;52.132;5.442;2022-07-29T13:32:24;101739.03;;;23.70;47.64
71966;BME280;59836;52.132;5.442;2022-07-29T13:35:00;101736.88;;;23.76;47.94
71966;BME280;59836;52.132;5.442;2022-07-29T13:37:30;101734.56;;;23.78;47.24
71966;BME280;59836;52.132;5.442;2022-07-29T13:40:00;101734.47;;;23.86;47.15
71966;BME280;59836;52.132;5.442;2022-07-29T13:42:29;101738.81;;;23.96;47.64
71966;BME280;59836;52.132;5.442;2022-07-29T13:44:56;101737.50;;;23.94;47.52
71966;BME280;59836;52.132;5.442;2022-07-29T13:47:23;101735.69;;;23.98;47.84
71966;BME280;59836;52.132;5.442;2022-07-29T13:50:04;101729.84;;;23.99;47.86
71966;BME280;59836;52.132;5.442;2022-07-29T13:52:32;101740.38;;;24.06;47.63
71966;BME280;59836;52.132;5.442;2022-07-29T13:54:59;101728.81;;;24.04;48.21
71966;BME280;59836;52.132;5.442;2022-07-29T13:57:26;101730.22;;;24.10;48.56
71966;BME280;59836;52.132;5.442;2022-07-29T13:59:53;101736.69;;;24.14;48.99
71966;BME280;59836;52.132;5.442;2022-07-29T14:02:20;101733.25;;;24.17;47.55
71966;BME280;59836;52.132;5.442;2022-07-29T14:04:51;101732.31;;;24.13;46.85
71966;BME280;59836;52.132;5.442;2022-07-29T14:07:18;101734.03;;;24.06;48.21
71966;BME280;59836;52.132;5.442;2022-07-29T14:09:44;101734.03;;;24.06;47.51
71966;BME280;59836;52.132;5.442;2022-07-29T14:12:11;101731.38;;;24.09;48.35
71966;BME280;59836;52.132;5.442;2022-07-29T14:14:38;101733.47;;;24.12;48.20
71966;BME280;59836;52.132;5.442;2022-07-29T14:17:04;101733.47;;;24.12;47.83